sensor_id;sensor_type;location;lat;lon;timestamp;pressure;altitude;pressure_sealevel;temperature;humidity
61119;BME280;51448;51.660;5.824;2023-02-18T00:01:45;102121.63;;;11.08;100.00
61119;BME280;51448;51.660;5.824;2023-02-18T00:04:13;102114.59;;;11.07;100.00
61119;BME280;51448;51.660;5.824;2023-02-18T00:06:40;102112.88;;;11.07;100.00
61119;BME280;51448;51.660;5.824;2023-02-18T00:09:09;102103.19;;;11.08;100.00
61119;BME280;51448;51.660;5.824;2023-02-18T00:11:38;102109.34;;;11.08;100.00
61119;BME280;51448;51.660;5.824;2023-02-18T00:14:09;102097.06;;;11.07;100.00
61119;BME280;51448;51.660;5.824;2023-02-18T00:16:40;102099.69;;;11.07;100.00
61119;BME280;51448;51.660;5.824;2023-02-18T00:19:15;102087.41;;;11.08;100.00
61119;BME280;51448;51.660;5.824;2023-02-18T00:21:45;102087.41;;;11.08;100.00
61119;BME280;51448;51.660;5.824;2023-02-18T00:24:15;102097.06;;;11.07;100.00
61119;BME280;51448;51.660;5.824;2023-02-18T00:26:43;102101.44;;;11.07;100.00
61119;BME280;51448;51.660;5.824;2023-02-18T00:29:11;102094.44;;;11.07;100.00
61119;BME280;51448;51.660;5.824;2023-02-18T00:31:41;102092.66;;;11.10;100.00
61119;BME280;51448;51.660;5.824;2023-02-18T00:34:10;102079.50;;;11.06;100.00
61119;BME280;51448;51.660;5.824;2023-02-18T00:36:39;102079.50;;;11.06;100.00
61119;BME280;51448;51.660;5.824;2023-02-18T00:39:09;102078.66;;;11.07;100.00
61119;BME280;51448;51.660;5.824;2023-02-18T00:41:38;102072.47;;;11.07;100.00
61119;BME280;51448;51.660;5.824;2023-02-18T00:44:06;102064.59;;;11.07;100.00
61119;BME280;51448;51.660;5.824;2023-02-18T00:46:34;102067.22;;;11.07;100.00
61119;BME280;51448;51.660;5.824;2023-02-18T00:49:03;102058.44;;;11.06;100.00
61119;BME280;51448;51.660;5.824;2023-02-18T00:51:31;102066.34;;;11.10;100.00
61119;BME280;51448;51.660;5.824;2023-02-18T00:54:00;102058.44;;;11.08;100.00
61119;BME280;51448;51.660;5.824;2023-02-18T00:56:27;102049.69;;;11.07;100.00
61119;BME280;51448;51.660;5.824;2023-02-18T00:58:55;102063.72;;;11.08;100.00
61119;BME280;51448;51.660;5.824;2023-02-18T01:01:22;102053.19;;;11.08;100.00
61119;BME280;51448;51.660;5.824;2023-02-18T01:03:50;102054.03;;;11.10;100.00
61119;BME280;51448;51.660;5.824;2023-02-18T01:06:18;102042.66;;;11.08;100.00
61119;BME280;51448;51.660;5.824;2023-02-18T01:08:47;102045.28;;;11.10;100.00
61119;BME280;51448;51.660;5.824;2023-02-18T01:11:15;102047.00;;;11.09;100.00
61119;BME280;51448;51.660;5.824;2023-02-18T01:13:45;102046.13;;;11.10;100.00
61119;BME280;51448;51.660;5.824;2023-02-18T01:16:12;102033.84;;;11.09;100.00
61119;BME280;51448;51.660;5.824;2023-02-18T01:18:40;102041.72;;;11.11;100.00
61119;BME280;51448;51.660;5.824;2023-02-18T01:21:08;102032.97;;;11.12;100.00
61119;BME280;51448;51.660;5.824;2023-02-18T01:23:37;102026.84;;;11.10;100.00
61119;BME280;51448;51.660;5.824;2023-02-18T01:26:07;102032.97;;;11.10;100.00
61119;BME280;51448;51.660;5.824;2023-02-18T01:28:38;102029.47;;;11.10;100.00
61119;BME280;51448;51.660;5.824;2023-02-18T01:31:10;102025.06;;;11.10;100.00
61119;BME280;51448;51.660;5.824;2023-02-18T01:33:39;102019.81;;;11.10;100.00
61119;BME280;51448;51.660;5.824;2023-02-18T01:36:08;102022.44;;;11.10;100.00
61119;BME280;51448;51.660;5.824;2023-02-18T01:38:37;102016.25;;;11.11;100.00
61119;BME280;51448;51.660;5.824;2023-02-18T01:41:06;102015.41;;;11.11;100.00
61119;BME280;51448;51.660;5.824;2023-02-18T01:43:34;102004.88;;;11.12;100.00
61119;BME280;51448;51.660;5.824;2023-02-18T01:51:11;102022.44;;;11.10;100.00
61119;BME280;51448;51.660;5.824;2023-02-18T01:53:55;102017.16;;;11.10;100.00
61119;BME280;51448;51.660;5.824;2023-02-18T01:56:31;102020.69;;;11.09;100.00
61119;BME280;51448;51.660;5.824;2023-02-18T01:59:05;102022.47;;;11.07;100.00
61119;BME280;51448;51.660;5.824;2023-02-18T02:01:39;102011.97;;;11.04;100.00
61119;BME280;51448;51.660;5.824;2023-02-18T02:04:10;102005.88;;;11.00;100.00
61119;BME280;51448;51.660;5.824;2023-02-18T02:06:40;102005.00;;;11.00;100.00
61119;BME280;51448;51.660;5.824;2023-02-18T02:09:12;102005.91;;;10.97;100.00
61119;BME280;51448;51.660;5.824;2023-02-18T02:26:57;101987.66;;;10.80;100.00
61119;BME280;51448;51.660;5.824;2023-02-18T02:33:37;101975.41;;;10.76;100.00
61119;BME280;51448;51.660;5.824;2023-02-18T02:36:23;101963.16;;;10.74;100.00
61119;BME280;51448;51.660;5.824;2023-02-18T02:39:18;101960.53;;;10.74;100.00
61119;BME280;51448;51.660;5.824;2023-02-18T02:44:57;101957.06;;;10.70;100.00
61119;BME280;51448;51.660;5.824;2023-02-18T02:50:25;101938.69;;;10.67;100.00
61119;BME280;51448;51.660;5.824;2023-02-18T02:53:13;101935.19;;;10.65;100.00
61119;BME280;51448;51.660;5.824;2023-02-18T02:55:46;101928.19;;;10.64;100.00
61119;BME280;51448;51.660;5.824;2023-02-18T02:58:18;101914.16;;;10.63;100.00
61119;BME280;51448;51.660;5.824;2023-02-18T03:01:27;101915.00;;;10.65;100.00
61119;BME280;51448;51.660;5.824;2023-02-18T03:04:16;101908.91;;;10.63;100.00
61119;BME280;51448;51.660;5.824;2023-02-18T03:15:37;101886.19;;;10.56;100.00
61119;BME280;51448;51.660;5.824;2023-02-18T03:18:25;101873.91;;;10.55;100.00
61119;BME280;51448;51.660;5.824;2023-02-18T03:21:00;101877.41;;;10.56;100.00
61119;BME280;51448;51.660;5.824;2023-02-18T03:23:37;101867.78;;;10.56;100.00
61119;BME280;51448;51.660;5.824;2023-02-18T03:26:15;101857.25;;;10.56;100.00
61119;BME280;51448;51.660;5.824;2023-02-18T03:28:50;101861.63;;;10.56;100.00
61119;BME280;51448;51.660;5.824;2023-02-18T03:31:25;101856.38;;;10.56;100.00
61119;BME280;51448;51.660;5.824;2023-02-18T03:33:59;101853.78;;;10.54;100.00
61119;BME280;51448;51.660;5.824;2023-02-18T03:36:31;101853.78;;;10.53;100.00
61119;BME280;51448;51.660;5.824;2023-02-18T03:39:09;101845.03;;;10.52;100.00
61119;BME280;51448;51.660;5.824;2023-02-18T03:41:40;101844.13;;;10.52;100.00
61119;BME280;51448;51.660;5.824;2023-02-18T03:44:10;101834.53;;;10.51;100.00
61119;BME280;51448;51.660;5.824;2023-02-18T03:46:40;101832.75;;;10.50;100.00
61119;BME280;51448;51.660;5.824;2023-02-18T03:49:13;101826.66;;;10.47;100.00
61119;BME280;51448;51.660;5.824;2023-02-18T03:51:41;101827.53;;;10.48;100.00
61119;BME280;51448;51.660;5.824;2023-02-18T03:54:09;101827.56;;;10.46;100.00
61119;BME280;51448;51.660;5.824;2023-02-18T03:56:40;101816.13;;;10.47;100.00
61119;BME280;51448;51.660;5.824;2023-02-18T03:59:09;101810.00;;;10.45;100.00
61119;BME280;51448;51.660;5.824;2023-02-18T04:01:38;101818.81;;;10.44;100.00
61119;BME280;51448;51.660;5.824;2023-02-18T04:04:06;101817.06;;;10.43;100.00
61119;BME280;51448;51.660;5.824;2023-02-18T04:06:34;101811.78;;;10.45;100.00
61119;BME280;51448;51.660;5.824;2023-02-18T04:09:02;101817.94;;;10.44;100.00
61119;BME280;51448;51.660;5.824;2023-02-18T04:11:38;101801.28;;;10.43;100.00
61119;BME280;51448;51.660;5.824;2023-02-18T04:14:07;101805.66;;;10.44;100.00
61119;BME280;51448;51.660;5.824;2023-02-18T04:16:36;101796.91;;;10.42;100.00
61119;BME280;51448;51.660;5.824;2023-02-18T04:19:03;101786.41;;;10.42;100.00
61119;BME280;51448;51.660;5.824;2023-02-18T04:21:32;101779.38;;;10.41;100.00
61119;BME280;51448;51.660;5.824;2023-02-18T04:24:00;101781.13;;;10.42;100.00
61119;BME280;51448;51.660;5.824;2023-02-18T04:26:28;101782.91;;;10.40;100.00
61119;BME280;51448;51.660;5.824;2023-02-18T04:28:56;101780.31;;;10.39;100.00
61119;BME280;51448;51.660;5.824;2023-02-18T04:31:24;101781.16;;;10.39;100.00
61119;BME280;51448;51.660;5.824;2023-02-18T04:33:51;101776.78;;;10.40;100.00
61119;BME280;51448;51.660;5.824;2023-02-18T04:36:19;101773.28;;;10.39;100.00
61119;BME280;51448;51.660;5.824;2023-02-18T04:38:46;101784.69;;;10.38;100.00
61119;BME280;51448;51.660;5.824;2023-02-18T04:41:14;101783.78;;;10.39;100.00
61119;BME280;51448;51.660;5.824;2023-02-18T04:43:41;101778.56;;;10.38;100.00
61119;BME280;51448;51.660;5.824;2023-02-18T04:46:09;101768.06;;;10.38;100.00
61119;BME280;51448;51.660;5.824;2023-02-18T04:48:37;101773.31;;;10.38;100.00
61119;BME280;51448;51.660;5.824;2023-02-18T04:51:04;101775.06;;;10.37;100.00
61119;BME280;51448;51.660;5.824;2023-02-18T04:53:32;101775.06;;;10.37;100.00
61119;BME280;51448;51.660;5.824;2023-02-18T04:56:00;101772.41;;;10.37;100.00
61119;BME280;51448;51.660;5.824;2023-02-18T04:58:27;101771.56;;;10.37;100.00
61119;BME280;51448;51.660;5.824;2023-02-18T05:00:58;101775.94;;;10.36;100.00
61119;BME280;51448;51.660;5.824;2023-02-18T05:03:27;101763.69;;;10.35;100.00
61119;BME280;51448;51.660;5.824;2023-02-18T05:05:56;101768.06;;;10.35;100.00
61119;BME280;51448;51.660;5.824;2023-02-18T05:08:24;101760.19;;;10.33;100.00
61119;BME280;51448;51.660;5.824;2023-02-18T05:10:51;101755.84;;;10.32;100.00
61119;BME280;51448;51.660;5.824;2023-02-18T05:13:19;101761.13;;;10.31;100.00
61119;BME280;51448;51.660;5.824;2023-02-18T05:15:47;101762.88;;;10.32;100.00
61119;BME280;51448;51.660;5.824;2023-02-18T05:18:15;101750.59;;;10.31;100.00
61119;BME280;51448;51.660;5.824;2023-02-18T05:20:42;101750.59;;;10.31;100.00
61119;BME280;51448;51.660;5.824;2023-02-18T05:23:10;101749.72;;;10.30;100.00
61119;BME280;51448;51.660;5.824;2023-02-18T05:25:37;101740.06;;;10.29;100.00
61119;BME280;51448;51.660;5.824;2023-02-18T05:28:05;101744.44;;;10.28;100.00
61119;BME280;51448;51.660;5.824;2023-02-18T05:30:32;101744.47;;;10.27;100.00
61119;BME280;51448;51.660;5.824;2023-02-18T05:33:00;101743.59;;;10.28;100.00
61119;BME280;51448;51.660;5.824;2023-02-18T05:35:27;101738.34;;;10.28;100.00
61119;BME280;51448;51.660;5.824;2023-02-18T05:37:55;101735.69;;;10.28;100.00
61119;BME280;51448;51.660;5.824;2023-02-18T05:40:22;101737.47;;;10.26;100.00
61119;BME280;51448;51.660;5.824;2023-02-18T05:42:50;101720.84;;;10.24;100.00
61119;BME280;51448;51.660;5.824;2023-02-18T05:45:17;101729.59;;;10.24;100.00
61119;BME280;51448;51.660;5.824;2023-02-18T05:47:45;101730.47;;;10.25;100.00
61119;BME280;51448;51.660;5.824;2023-02-18T05:50:12;101725.22;;;10.25;100.00
61119;BME280;51448;51.660;5.824;2023-02-18T05:52:40;101719.09;;;10.24;100.00
61119;BME280;51448;51.660;5.824;2023-02-18T05:55:07;101712.97;;;10.24;100.00
61119;BME280;51448;51.660;5.824;2023-02-18T05:57:35;101711.22;;;10.23;100.00
61119;BME280;51448;51.660;5.824;2023-02-18T06:00:04;101707.72;;;10.24;100.00
61119;BME280;51448;51.660;5.824;2023-02-18T06:02:32;101710.34;;;10.22;100.00
61119;BME280;51448;51.660;5.824;2023-02-18T06:04:59;101711.22;;;10.23;100.00
61119;BME280;51448;51.660;5.824;2023-02-18T06:07:27;101706.00;;;10.21;100.00
61119;BME280;51448;51.660;5.824;2023-02-18T06:09:54;101715.63;;;10.21;100.00
61119;BME280;51448;51.660;5.824;2023-02-18T06:12:22;101706.84;;;10.22;100.00
61119;BME280;51448;51.660;5.824;2023-02-18T06:14:50;101713.88;;;10.21;100.00
61119;BME280;51448;51.660;5.824;2023-02-18T06:17:17;101710.41;;;10.19;100.00
61119;BME280;51448;51.660;5.824;2023-02-18T06:19:55;101718.25;;;10.21;100.00
61119;BME280;51448;51.660;5.824;2023-02-18T06:22:22;101709.50;;;10.19;100.00
61119;BME280;51448;51.660;5.824;2023-02-18T06:24:50;101701.63;;;10.19;100.00
61119;BME280;51448;51.660;5.824;2023-02-18T06:27:18;101701.63;;;10.19;100.00
61119;BME280;51448;51.660;5.824;2023-02-18T06:29:45;101711.28;;;10.20;100.00
61119;BME280;51448;51.660;5.824;2023-02-18T06:32:13;101700.75;;;10.20;100.00
61119;BME280;51448;51.660;5.824;2023-02-18T06:34:41;101712.13;;;10.19;100.00
61119;BME280;51448;51.660;5.824;2023-02-18T06:37:09;101702.53;;;10.19;100.00
61119;BME280;51448;51.660;5.824;2023-02-18T06:39:38;101700.75;;;10.20;100.00
61119;BME280;51448;51.660;5.824;2023-02-18T06:42:06;101699.00;;;10.19;100.00
61119;BME280;51448;51.660;5.824;2023-02-18T06:44:34;101698.13;;;10.18;100.00
61119;BME280;51448;51.660;5.824;2023-02-18T06:47:04;101687.63;;;10.18;100.00
61119;BME280;51448;51.660;5.824;2023-02-18T06:49:31;101692.88;;;10.18;100.00
61119;BME280;51448;51.660;5.824;2023-02-18T06:51:59;101697.25;;;10.19;100.00
61119;BME280;51448;51.660;5.824;2023-02-18T06:54:27;101697.25;;;10.19;100.00
61119;BME280;51448;51.660;5.824;2023-02-18T06:56:54;101694.66;;;10.18;100.00
61119;BME280;51448;51.660;5.824;2023-02-18T06:59:21;101698.16;;;10.17;100.00
61119;BME280;51448;51.660;5.824;2023-02-18T07:01:49;101694.66;;;10.16;100.00
61119;BME280;51448;51.660;5.824;2023-02-18T07:04:17;101700.78;;;10.17;100.00
61119;BME280;51448;51.660;5.824;2023-02-18T07:06:45;101711.28;;;10.17;100.00
61119;BME280;51448;51.660;5.824;2023-02-18T07:09:12;101705.16;;;10.16;100.00
61119;BME280;51448;51.660;5.824;2023-02-18T07:11:40;101718.31;;;10.16;100.00
61119;BME280;51448;51.660;5.824;2023-02-18T07:14:07;101722.72;;;10.16;100.00
61119;BME280;51448;51.660;5.824;2023-02-18T07:16:35;101698.19;;;10.15;100.00
61119;BME280;51448;51.660;5.824;2023-02-18T07:19:03;101706.94;;;10.14;100.00
61119;BME280;51448;51.660;5.824;2023-02-18T07:21:30;101716.59;;;10.14;100.00
61119;BME280;51448;51.660;5.824;2023-02-18T07:24:00;101713.97;;;10.14;100.00
61119;BME280;51448;51.660;5.824;2023-02-18T07:26:31;101714.03;;;10.09;100.00
61119;BME280;51448;51.660;5.824;2023-02-18T07:28:58;101714.03;;;10.09;100.00
61119;BME280;51448;51.660;5.824;2023-02-18T07:31:26;101720.16;;;10.08;100.00
61119;BME280;51448;51.660;5.824;2023-02-18T07:33:54;101714.06;;;10.06;100.00
61119;BME280;51448;51.660;5.824;2023-02-18T07:36:21;101727.22;;;10.04;100.00
61119;BME280;51448;51.660;5.824;2023-02-18T07:38:49;101728.97;;;10.04;100.00
61119;BME280;51448;51.660;5.824;2023-02-18T07:41:19;101731.63;;;10.02;100.00
61119;BME280;51448;51.660;5.824;2023-02-18T07:43:48;101737.78;;;9.98;100.00
61119;BME280;51448;51.660;5.824;2023-02-18T07:46:16;101733.44;;;9.97;100.00
61119;BME280;51448;51.660;5.824;2023-02-18T07:48:44;101734.34;;;9.95;100.00
61119;BME280;51448;51.660;5.824;2023-02-18T07:51:11;101735.22;;;9.92;100.00
61119;BME280;51448;51.660;5.824;2023-02-18T07:53:39;101741.41;;;9.90;100.00
61119;BME280;51448;51.660;5.824;2023-02-18T07:56:10;101744.94;;;9.87;100.00
61119;BME280;51448;51.660;5.824;2023-02-18T07:58:41;101733.56;;;9.85;100.00
61119;BME280;51448;51.660;5.824;2023-02-18T08:01:10;101748.47;;;9.83;100.00
61119;BME280;51448;51.660;5.824;2023-02-18T08:03:41;101748.47;;;9.83;100.00
61119;BME280;51448;51.660;5.824;2023-02-18T08:06:20;101753.72;;;9.84;100.00
61119;BME280;51448;51.660;5.824;2023-02-18T08:09:02;101747.56;;;9.85;100.00
61119;BME280;51448;51.660;5.824;2023-02-18T08:11:31;101744.94;;;9.84;100.00
61119;BME280;51448;51.660;5.824;2023-02-18T08:13:59;101749.34;;;9.83;100.00
61119;BME280;51448;51.660;5.824;2023-02-18T08:16:30;101745.00;;;9.82;100.00
61119;BME280;51448;51.660;5.824;2023-02-18T08:18:58;101750.25;;;9.81;100.00
61119;BME280;51448;51.660;5.824;2023-02-18T08:21:26;101751.91;;;9.88;100.00
61119;BME280;51448;51.660;5.824;2023-02-18T08:23:54;101751.91;;;9.90;100.00
61119;BME280;51448;51.660;5.824;2023-02-18T08:26:21;101746.59;;;9.94;100.00
61119;BME280;51448;51.660;5.824;2023-02-18T08:28:49;101739.59;;;9.95;100.00
61119;BME280;51448;51.660;5.824;2023-02-18T08:31:22;101734.31;;;9.98;100.00
61119;BME280;51448;51.660;5.824;2023-02-18T08:33:53;101739.56;;;9.98;100.00
61119;BME280;51448;51.660;5.824;2023-02-18T08:36:22;101743.94;;;9.99;100.00
61119;BME280;51448;51.660;5.824;2023-02-18T08:38:50;101748.31;;;9.98;100.00
61119;BME280;51448;51.660;5.824;2023-02-18T08:41:18;101743.03;;;10.00;100.00
61119;BME280;51448;51.660;5.824;2023-02-18T08:43:47;101742.16;;;10.01;100.00
61119;BME280;51448;51.660;5.824;2023-02-18T08:46:20;101740.41;;;10.01;100.00
61119;BME280;51448;51.660;5.824;2023-02-18T08:49:02;101741.28;;;10.00;100.00
61119;BME280;51448;51.660;5.824;2023-02-18T08:51:31;101741.28;;;10.00;100.00
61119;BME280;51448;51.660;5.824;2023-02-18T08:53:58;101740.41;;;10.01;100.00
61119;BME280;51448;51.660;5.824;2023-02-18T08:56:26;101744.75;;;10.02;100.00
61119;BME280;51448;51.660;5.824;2023-02-18T08:58:54;101747.38;;;10.04;100.00
61119;BME280;51448;51.660;5.824;2023-02-18T09:01:21;101743.88;;;10.05;100.00
61119;BME280;51448;51.660;5.824;2023-02-18T09:03:49;101750.88;;;10.04;100.00
61119;BME280;51448;51.660;5.824;2023-02-18T09:06:17;101750.00;;;10.05;100.00
61119;BME280;51448;51.660;5.824;2023-02-18T09:08:44;101752.63;;;10.07;100.00
61119;BME280;51448;51.660;5.824;2023-02-18T09:11:12;101751.69;;;10.10;100.00
61119;BME280;51448;51.660;5.824;2023-02-18T09:13:40;101753.41;;;10.11;100.00
61119;BME280;51448;51.660;5.824;2023-02-18T09:16:15;101741.19;;;10.11;100.00
61119;BME280;51448;51.660;5.824;2023-02-18T09:18:45;101750.84;;;10.09;100.00
61119;BME280;51448;51.660;5.824;2023-02-18T09:21:15;101739.47;;;10.07;100.00
61119;BME280;51448;51.660;5.824;2023-02-18T09:23:45;101745.59;;;10.06;100.00
61119;BME280;51448;51.660;5.824;2023-02-18T09:26:15;101744.72;;;10.05;100.00
61119;BME280;51448;51.660;5.824;2023-02-18T09:28:44;101750.00;;;10.02;100.00
61119;BME280;51448;51.660;5.824;2023-02-18T09:31:14;101736.91;;;10.01;100.00
61119;BME280;51448;51.660;5.824;2023-02-18T09:33:50;101743.03;;;9.98;100.00
61119;BME280;51448;51.660;5.824;2023-02-18T09:36:23;101744.88;;;9.95;100.00
61119;BME280;51448;51.660;5.824;2023-02-18T09:38:52;101739.63;;;9.92;100.00
61119;BME280;51448;51.660;5.824;2023-02-18T09:41:28;101731.78;;;9.89;100.00
61119;BME280;51448;51.660;5.824;2023-02-18T09:44:01;101758.94;;;9.86;100.00
61119;BME280;51448;51.660;5.824;2023-02-18T09:46:35;101743.22;;;9.83;100.00
61119;BME280;51448;51.660;5.824;2023-02-18T09:49:21;101743.22;;;9.83;100.00
61119;BME280;51448;51.660;5.824;2023-02-18T09:51:53;101755.50;;;9.79;100.00
61119;BME280;51448;51.660;5.824;2023-02-18T09:54:23;101756.38;;;9.80;100.00
61119;BME280;51448;51.660;5.824;2023-02-18T09:56:51;101761.63;;;9.80;100.00
61119;BME280;51448;51.660;5.824;2023-02-18T09:59:21;101757.28;;;9.79;100.00
61119;BME280;51448;51.660;5.824;2023-02-18T10:01:53;101759.91;;;9.80;100.00
61119;BME280;51448;51.660;5.824;2023-02-18T10:04:27;101758.13;;;9.81;100.00
61119;BME280;51448;51.660;5.824;2023-02-18T10:06:59;101755.50;;;9.81;100.00
61119;BME280;51448;51.660;5.824;2023-02-18T10:09:35;101753.75;;;9.83;100.00
61119;BME280;51448;51.660;5.824;2023-02-18T10:12:34;101761.56;;;9.86;100.00
61119;BME280;51448;51.660;5.824;2023-02-18T10:15:02;101757.22;;;9.85;100.00
61119;BME280;51448;51.660;5.824;2023-02-18T10:17:36;101765.97;;;9.87;100.00
61119;BME280;51448;51.660;5.824;2023-02-18T10:20:05;101751.91;;;9.90;100.00
61119;BME280;51448;51.660;5.824;2023-02-18T10:22:36;101763.25;;;9.95;100.00
61119;BME280;51448;51.660;5.824;2023-02-18T10:25:06;101778.97;;;9.96;100.00
61119;BME280;51448;51.660;5.824;2023-02-18T10:27:37;101778.97;;;10.01;100.00
61119;BME280;51448;51.660;5.824;2023-02-18T10:30:28;101788.56;;;10.03;100.00
61119;BME280;51448;51.660;5.824;2023-02-18T10:42:09;101792.00;;;10.10;100.00
61119;BME280;51448;51.660;5.824;2023-02-18T10:45:02;101788.44;;;10.13;100.00
61119;BME280;51448;51.660;5.824;2023-02-18T10:47:39;101806.84;;;10.13;100.00
61119;BME280;51448;51.660;5.824;2023-02-18T10:50:33;101804.19;;;10.16;100.00
61119;BME280;51448;51.660;5.824;2023-02-18T10:55:42;101798.03;;;10.17;100.00
61119;BME280;51448;51.660;5.824;2023-02-18T10:58:30;101801.50;;;10.20;100.00
61119;BME280;51448;51.660;5.824;2023-02-18T11:01:03;101802.38;;;10.21;100.00
61119;BME280;51448;51.660;5.824;2023-02-18T11:03:46;101807.69;;;10.19;100.00
61119;BME280;51448;51.660;5.824;2023-02-18T11:06:31;101806.81;;;10.17;100.00
61119;BME280;51448;51.660;5.824;2023-02-18T11:09:06;101802.44;;;10.15;100.00
61119;BME280;51448;51.660;5.824;2023-02-18T11:11:49;101805.97;;;10.14;100.00
61119;BME280;51448;51.660;5.824;2023-02-18T11:14:37;101811.25;;;10.12;100.00
61119;BME280;51448;51.660;5.824;2023-02-18T11:17:34;101829.69;;;10.07;100.00
61119;BME280;51448;51.660;5.824;2023-02-18T11:20:32;101811.38;;;10.01;100.00
61119;BME280;51448;51.660;5.824;2023-02-18T11:25:34;101800.88;;;9.98;100.00
61119;BME280;51448;51.660;5.824;2023-02-18T11:28:22;101802.69;;;9.95;100.00
61119;BME280;51448;51.660;5.824;2023-02-18T11:30:58;101807.03;;;9.94;100.00
61119;BME280;51448;51.660;5.824;2023-02-18T11:36:27;101804.41;;;9.97;100.00
61119;BME280;51448;51.660;5.824;2023-02-18T11:39:03;101800.91;;;9.97;100.00
61119;BME280;51448;51.660;5.824;2023-02-18T11:41:39;101807.00;;;9.99;100.00
61119;BME280;51448;51.660;5.824;2023-02-18T11:47:18;101811.38;;;9.98;100.00
61119;BME280;51448;51.660;5.824;2023-02-18T11:50:13;101803.47;;;10.01;100.00
61119;BME280;51448;51.660;5.824;2023-02-18T11:52:48;101806.97;;;10.03;100.00
61119;BME280;51448;51.660;5.824;2023-02-18T11:55:23;101793.81;;;10.03;100.00
61119;BME280;51448;51.660;5.824;2023-02-18T12:02:53;101797.25;;;10.08;100.00
61119;BME280;51448;51.660;5.824;2023-02-18T12:05:26;101798.09;;;10.11;100.00
61119;BME280;51448;51.660;5.824;2023-02-18T12:10:34;101797.16;;;10.18;100.00
61119;BME280;51448;51.660;5.824;2023-02-18T12:13:09;101786.59;;;10.24;100.00
61119;BME280;51448;51.660;5.824;2023-02-18T12:21:37;101774.13;;;10.43;100.00
61119;BME280;51448;51.660;5.824;2023-02-18T12:24:41;101767.84;;;10.52;100.00
61119;BME280;51448;51.660;5.824;2023-02-18T12:27:39;101766.97;;;10.54;100.00
61119;BME280;51448;51.660;5.824;2023-02-18T12:45:48;101770.31;;;10.67;100.00
61119;BME280;51448;51.660;5.824;2023-02-18T12:49:04;101773.72;;;10.72;100.00
61119;BME280;51448;51.660;5.824;2023-02-18T12:55:04;101773.63;;;10.81;100.00
61119;BME280;51448;51.660;5.824;2023-02-18T12:58:31;101772.69;;;10.85;100.00
61119;BME280;51448;51.660;5.824;2023-02-18T13:07:42;101757.47;;;11.06;100.00
61119;BME280;51448;51.660;5.824;2023-02-18T13:13:30;101776.44;;;11.26;100.00
61119;BME280;51448;51.660;5.824;2023-02-18T13:16:15;101776.34;;;11.33;100.00
61119;BME280;51448;51.660;5.824;2023-02-18T13:19:10;101782.38;;;11.39;100.00
61119;BME280;51448;51.660;5.824;2023-02-18T13:21:42;101778.88;;;11.40;100.00
61119;BME280;51448;51.660;5.824;2023-02-18T13:24:42;101770.88;;;11.46;100.00
61119;BME280;51448;51.660;5.824;2023-02-18T13:27:36;101769.97;;;11.47;100.00
61119;BME280;51448;51.660;5.824;2023-02-18T13:30:24;101780.47;;;11.49;100.00
61119;BME280;51448;51.660;5.824;2023-02-18T13:35:47;101775.13;;;11.54;100.00
61119;BME280;51448;51.660;5.824;2023-02-18T13:41:25;101761.75;;;11.64;100.00
61119;BME280;51448;51.660;5.824;2023-02-18T13:43:54;101778.47;;;11.65;100.00
61119;BME280;51448;51.660;5.824;2023-02-18T13:46:23;101766.13;;;11.67;100.00
61119;BME280;51448;51.660;5.824;2023-02-18T13:49:11;101769.59;;;11.69;100.00
61119;BME280;51448;51.660;5.824;2023-02-18T13:56:43;101771.41;;;11.67;100.00
61119;BME280;51448;51.660;5.824;2023-02-18T14:01:47;101769.63;;;11.67;100.00
61119;BME280;51448;51.660;5.824;2023-02-18T14:07:24;101771.31;;;11.70;100.00
61119;BME280;51448;51.660;5.824;2023-02-18T14:10:05;101770.47;;;11.68;100.00
61119;BME280;51448;51.660;5.824;2023-02-18T14:21:24;101787.03;;;11.76;100.00
61119;BME280;51448;51.660;5.824;2023-02-18T14:24:10;101788.81;;;11.76;100.00
61119;BME280;51448;51.660;5.824;2023-02-18T14:26:43;101786.09;;;11.79;100.00
61119;BME280;51448;51.660;5.824;2023-02-18T14:29:19;101788.72;;;11.79;100.00
61119;BME280;51448;51.660;5.824;2023-02-18T14:31:59;101779.97;;;11.78;100.00
61119;BME280;51448;51.660;5.824;2023-02-18T14:38:01;101789.47;;;11.87;100.00
61119;BME280;51448;51.660;5.824;2023-02-18T14:40:40;101784.19;;;11.90;100.00
61119;BME280;51448;51.660;5.824;2023-02-18T14:49:30;101787.44;;;12.04;100.00
61119;BME280;51448;51.660;5.824;2023-02-18T14:52:33;101788.25;;;12.08;100.00
61119;BME280;51448;51.660;5.824;2023-02-18T14:55:02;101784.66;;;12.12;100.00
61119;BME280;51448;51.660;5.824;2023-02-18T14:57:45;101781.91;;;12.17;100.00
61119;BME280;51448;51.660;5.824;2023-02-18T15:00:22;101782.72;;;12.20;100.00
61119;BME280;51448;51.660;5.824;2023-02-18T15:02:54;101784.31;;;12.29;100.00
61119;BME280;51448;51.660;5.824;2023-02-18T15:05:24;101784.16;;;12.37;100.00
61119;BME280;51448;51.660;5.824;2023-02-18T15:08:04;101783.97;;;12.44;100.00
61119;BME280;51448;51.660;5.824;2023-02-18T15:11:06;101785.59;;;12.53;100.00
61119;BME280;51448;51.660;5.824;2023-02-18T15:13:41;101778.44;;;12.58;100.00
61119;BME280;51448;51.660;5.824;2023-02-18T15:19:14;101785.47;;;12.58;100.00
61119;BME280;51448;51.660;5.824;2023-02-18T15:21:52;101794.34;;;12.55;100.00
61119;BME280;51448;51.660;5.824;2023-02-18T15:24:35;101775.91;;;12.52;100.00
61119;BME280;51448;51.660;5.824;2023-02-18T15:27:17;101783.84;;;12.51;100.00
61119;BME280;51448;51.660;5.824;2023-02-18T15:30:03;101788.31;;;12.48;100.00